createdAt,value
2023-05-02T00:01:59.495Z,98478.00
2023-05-02T00:04:27.189Z,98485.84
2023-05-02T00:06:54.685Z,98485.25
2023-05-02T00:09:22.123Z,98481.78
2023-05-02T00:11:49.440Z,98479.06
2023-05-02T00:14:16.563Z,98489.78
2023-05-02T00:16:43.899Z,98497.66
2023-05-02T00:19:11.231Z,98496.59
2023-05-02T00:21:38.735Z,98492.75
2023-05-02T00:24:06.708Z,98491.63
2023-05-02T00:26:33.714Z,98490.63
2023-05-02T00:29:01.071Z,98497.69
2023-05-02T00:31:28.497Z,98502.47
2023-05-02T00:33:56.233Z,98508.06
2023-05-02T00:36:23.917Z,98512.75
2023-05-02T00:38:51.373Z,98507.84
2023-05-02T00:41:18.526Z,98511.97
2023-05-02T00:43:46.119Z,98511.88
2023-05-02T00:46:13.861Z,98507.22
2023-05-02T00:48:40.884Z,98512.81
2023-05-02T00:51:12.854Z,98511.34
2023-05-02T00:53:40.654Z,98521.66
2023-05-02T00:56:09.351Z,98516.69
2023-05-02T00:58:37.813Z,98520.56
2023-05-02T01:01:29.697Z,98521.91
2023-05-02T01:04:00.138Z,98533.91
2023-05-02T01:07:00.811Z,98532.88
2023-05-02T01:09:38.011Z,98532.69
2023-05-02T01:12:33.119Z,98546.03
2023-05-02T01:15:01.035Z,98534.53
2023-05-02T01:17:32.263Z,98543.41
2023-05-02T01:20:01.692Z,98545.94
2023-05-02T01:22:30.360Z,98543.19
2023-05-02T01:25:22.789Z,98551.94
2023-05-02T01:28:02.208Z,98555.28
2023-05-02T01:30:30.634Z,98559.41
2023-05-02T01:32:58.455Z,98560.88
2023-05-02T01:35:26.023Z,98561.09
2023-05-02T01:37:54.637Z,98568.06
2023-05-02T01:40:22.375Z,98558.75
2023-05-02T01:42:50.585Z,98557.63
2023-05-02T01:45:17.800Z,98563.34
2023-05-02T01:47:45.216Z,98560.09
2023-05-02T01:50:14.341Z,98563.53
2023-05-02T01:52:41.571Z,98570.53
2023-05-02T01:55:11.391Z,98561.59
2023-05-02T01:57:40.915Z,98572.97
2023-05-02T02:00:08.765Z,98576.47
2023-05-02T02:02:44.537Z,98579.00
2023-05-02T02:05:14.292Z,98575.34
2023-05-02T02:07:41.661Z,98584.69
2023-05-02T02:10:09.318Z,98578.75
2023-05-02T02:12:42.915Z,98582.66
2023-05-02T02:15:12.549Z,98585.88
2023-05-02T02:17:48.772Z,98580.22
2023-05-02T02:20:16.234Z,98575.16
2023-05-02T02:22:43.804Z,98579.50
2023-05-02T02:25:12.185Z,98581.16
2023-05-02T02:27:39.611Z,98579.56
2023-05-02T02:30:08.032Z,98581.28
2023-05-02T02:32:35.554Z,98586.09
2023-05-02T02:35:05.831Z,98582.59
2023-05-02T02:37:54.067Z,98588.63
2023-05-02T02:40:29.820Z,98586.84
2023-05-02T02:43:20.216Z,98596.03
2023-05-02T02:46:11.984Z,98590.06
2023-05-02T02:48:44.764Z,98593.09
2023-05-02T02:51:24.813Z,98581.00
2023-05-02T02:54:25.796Z,98589.34
2023-05-02T02:57:01.606Z,98579.22
2023-05-02T02:59:38.554Z,98586.88
2023-05-02T03:02:08.626Z,98579.31
2023-05-02T03:04:38.167Z,98589.97
2023-05-02T03:07:05.892Z,98584.50
2023-05-02T03:09:46.805Z,98580.38
2023-05-02T03:12:19.674Z,98585.97
2023-05-02T03:14:49.021Z,98587.84
2023-05-02T03:17:17.350Z,98594.28
2023-05-02T03:19:45.915Z,98595.28
2023-05-02T03:22:13.175Z,98588.31
2023-05-02T03:24:41.064Z,98582.91
2023-05-02T03:27:09.611Z,98579.88
2023-05-02T03:29:41.423Z,98585.66
2023-05-02T03:32:11.186Z,98592.91
2023-05-02T03:34:41.877Z,98595.75
2023-05-02T03:37:10.342Z,98595.91
2023-05-02T03:39:37.647Z,98578.78
2023-05-02T03:42:05.479Z,98578.41
2023-05-02T03:44:32.807Z,98590.00
2023-05-02T03:47:00.337Z,98591.09
2023-05-02T03:49:28.874Z,98589.34
2023-05-02T03:51:56.658Z,98595.75
2023-05-02T03:54:32.435Z,98604.47
2023-05-02T03:57:00.559Z,98587.97
2023-05-02T03:59:34.947Z,98586.38
2023-05-02T04:02:11.927Z,98583.00
2023-05-02T04:04:43.957Z,98589.63
2023-05-02T04:07:18.951Z,98602.59
2023-05-02T04:09:49.873Z,98593.25
2023-05-02T04:12:17.517Z,98595.16
2023-05-02T04:14:48.375Z,98589.09
2023-05-02T04:17:16.264Z,98595.13
2023-05-02T04:19:49.353Z,98598.63
2023-05-02T04:22:18.061Z,98588.19
2023-05-02T04:24:50.778Z,98601.53
2023-05-02T04:27:19.490Z,98601.75
2023-05-02T04:29:50.464Z,98599.81
2023-05-02T04:32:19.208Z,98605.66
2023-05-02T04:34:47.649Z,98600.03
2023-05-02T04:37:16.195Z,98601.56
2023-05-02T04:39:45.548Z,98612.81
2023-05-02T04:42:19.564Z,98605.63
2023-05-02T04:45:22.298Z,98604.69
2023-05-02T04:47:50.855Z,98613.34
2023-05-02T04:50:18.256Z,98608.22
2023-05-02T04:52:45.342Z,98615.78
2023-05-02T04:55:13.004Z,98618.78
2023-05-02T04:57:40.926Z,98619.78
2023-05-02T05:00:12.490Z,98626.78
2023-05-02T05:02:39.848Z,98629.03
2023-05-02T05:05:09.804Z,98627.81
2023-05-02T05:07:37.192Z,98625.41
2023-05-02T05:10:04.886Z,98622.47
2023-05-02T05:12:40.951Z,98623.47
2023-05-02T05:15:10.338Z,98622.81
2023-05-02T05:17:38.119Z,98622.31
2023-05-02T05:22:41.257Z,98620.66
2023-05-02T05:25:10.601Z,98627.75
2023-05-02T05:27:38.461Z,98622.03
2023-05-02T05:30:08.724Z,98621.50
2023-05-02T05:32:36.316Z,98614.28
2023-05-02T05:35:04.283Z,98624.44
2023-05-02T05:37:31.693Z,98615.72
2023-05-02T05:40:01.400Z,98625.41
2023-05-02T05:42:29.346Z,98615.38
2023-05-02T05:45:02.381Z,98612.19
2023-05-02T05:47:30.855Z,98612.00
2023-05-02T05:49:58.611Z,98624.75
2023-05-02T05:52:30.154Z,98615.91
2023-05-02T05:55:00.402Z,98617.38
2023-05-02T05:57:29.183Z,98609.78
2023-05-02T05:59:57.613Z,98604.47
2023-05-02T06:02:25.857Z,98619.25
2023-05-02T06:04:53.373Z,98613.63
2023-05-02T06:07:23.357Z,98621.28
2023-05-02T06:09:50.794Z,98620.53
2023-05-02T06:12:18.482Z,98613.63
2023-05-02T06:14:46.365Z,98610.25
2023-05-02T06:17:14.356Z,98612.31
2023-05-02T06:19:42.120Z,98629.84
2023-05-02T06:22:12.837Z,98625.34
2023-05-02T06:24:40.288Z,98620.72
2023-05-02T06:27:07.681Z,98615.72
2023-05-02T06:29:35.227Z,98622.88
2023-05-02T06:32:02.420Z,98627.25
2023-05-02T06:34:32.970Z,98635.50
2023-05-02T06:37:00.056Z,98628.91
2023-05-02T06:39:27.098Z,98633.84
2023-05-02T06:42:00.504Z,98638.81
2023-05-02T06:44:28.975Z,98631.09
2023-05-02T06:46:56.359Z,98637.28
2023-05-02T06:49:23.944Z,98624.31
2023-05-02T06:51:51.364Z,98626.56
2023-05-02T06:54:18.742Z,98639.63
2023-05-02T06:56:46.272Z,98641.25
2023-05-02T06:59:13.581Z,98636.03
2023-05-02T07:01:41.035Z,98642.00
2023-05-02T07:04:08.823Z,98638.47
2023-05-02T07:06:36.528Z,98629.97
2023-05-02T07:09:04.149Z,98633.31
2023-05-02T07:11:31.598Z,98643.84
2023-05-02T07:13:59.025Z,98636.00
2023-05-02T07:16:26.103Z,98637.66
2023-05-02T07:18:53.745Z,98651.75
2023-05-02T07:21:21.088Z,98640.56
2023-05-02T07:23:48.486Z,98651.25
2023-05-02T07:26:15.922Z,98643.47
2023-05-02T07:28:43.009Z,98652.00
2023-05-02T07:31:10.336Z,98644.75
2023-05-02T07:33:37.670Z,98650.28
2023-05-02T07:36:05.082Z,98655.94
2023-05-02T07:38:32.421Z,98646.22
2023-05-02T07:41:00.587Z,98645.41
2023-05-02T07:43:28.031Z,98662.59
2023-05-02T07:45:55.921Z,98668.63
2023-05-02T07:48:23.733Z,98666.94
2023-05-02T07:50:52.806Z,98664.91
2023-05-02T07:53:20.366Z,98664.66
2023-05-02T07:55:47.428Z,98660.13
2023-05-02T07:58:14.498Z,98653.47
2023-05-02T08:00:41.810Z,98664.56
2023-05-02T08:03:09.691Z,98674.50
2023-05-02T08:05:37.078Z,98660.44
2023-05-02T08:08:04.644Z,98657.97
2023-05-02T08:10:31.996Z,98665.84
2023-05-02T08:12:59.116Z,98662.06
2023-05-02T08:15:26.325Z,98663.97
2023-05-02T08:17:53.633Z,98665.41
2023-05-02T08:20:22.250Z,98650.31
2023-05-02T08:22:50.185Z,98660.44
2023-05-02T08:25:17.610Z,98662.09
2023-05-02T08:27:45.631Z,98659.53
2023-05-02T08:30:13.086Z,98660.91
2023-05-02T08:32:40.961Z,98665.91
2023-05-02T08:35:08.271Z,98666.56
2023-05-02T08:37:36.239Z,98666.00
2023-05-02T08:40:03.809Z,98669.78
2023-05-02T08:42:32.630Z,98669.16
2023-05-02T08:45:00.576Z,98672.66
2023-05-02T08:47:28.484Z,98680.34
2023-05-02T08:49:56.110Z,98677.00
2023-05-02T08:52:23.667Z,98678.25
2023-05-02T08:54:51.401Z,98691.53
2023-05-02T08:57:18.425Z,98691.53
2023-05-02T08:59:45.920Z,98686.97
2023-05-02T09:02:36.393Z,98697.34
2023-05-02T09:05:07.604Z,98703.16
2023-05-02T09:07:48.661Z,98703.56
2023-05-02T09:10:16.016Z,98710.41
2023-05-02T09:12:43.264Z,98709.00
2023-05-02T09:15:16.991Z,98707.09
2023-05-02T09:17:47.536Z,98711.66
2023-05-02T09:20:16.114Z,98712.25
2023-05-02T09:22:50.689Z,98703.56
2023-05-02T09:25:18.447Z,98713.06
2023-05-02T09:28:04.880Z,98704.34
2023-05-02T09:30:32.416Z,98707.81
2023-05-02T09:32:59.949Z,98715.66
2023-05-02T09:35:27.161Z,98715.44
2023-05-02T09:37:58.334Z,98710.28
2023-05-02T09:40:27.651Z,98718.00
2023-05-02T09:42:54.815Z,98724.84
2023-05-02T09:45:23.725Z,98727.34
2023-05-02T09:47:51.392Z,98724.66
2023-05-02T09:50:39.076Z,98738.94
2023-05-02T09:53:10.702Z,98731.69
2023-05-02T09:55:38.266Z,98731.50
2023-05-02T09:58:06.265Z,98748.50
2023-05-02T10:00:44.175Z,98741.25
2023-05-02T10:03:11.508Z,98742.28
2023-05-02T10:05:39.533Z,98745.22
2023-05-02T10:08:07.445Z,98741.47
2023-05-02T10:10:39.442Z,98748.53
2023-05-02T10:13:08.611Z,98755.34
2023-05-02T10:15:40.577Z,98749.16
2023-05-02T10:18:15.866Z,98754.91
2023-05-02T10:20:58.703Z,98756.75
2023-05-02T10:23:27.603Z,98755.31
2023-05-02T10:25:56.312Z,98771.69
2023-05-02T10:28:24.710Z,98768.38
2023-05-02T10:30:52.361Z,98768.16
2023-05-02T10:33:21.455Z,98762.78
2023-05-02T10:35:49.213Z,98778.31
2023-05-02T10:38:22.303Z,98776.44
2023-05-02T10:41:01.791Z,98782.03
2023-05-02T10:43:32.398Z,98787.63
2023-05-02T10:46:00.031Z,98779.13
2023-05-02T10:48:27.722Z,98791.97
2023-05-02T10:51:01.053Z,98794.25
2023-05-02T10:53:28.935Z,98793.03
2023-05-02T10:56:21.184Z,98801.69
2023-05-02T10:58:49.494Z,98797.56
2023-05-02T11:01:29.185Z,98801.50
2023-05-02T11:04:00.557Z,98800.69
2023-05-02T11:06:29.455Z,98813.50
2023-05-02T11:09:21.562Z,98809.75
2023-05-02T11:11:49.434Z,98807.69
2023-05-02T11:14:26.197Z,98811.00
2023-05-02T11:16:59.713Z,98820.09
2023-05-02T11:19:29.172Z,98824.19
2023-05-02T11:22:27.802Z,98813.03
2023-05-02T11:24:55.155Z,98818.41
2023-05-02T11:27:37.672Z,98826.91
2023-05-02T11:30:09.591Z,98832.88
2023-05-02T11:32:46.222Z,98833.22
2023-05-02T11:35:20.808Z,98840.03
2023-05-02T11:37:54.748Z,98851.78
2023-05-02T11:40:22.184Z,98844.34
2023-05-02T11:42:49.242Z,98855.03
2023-05-02T11:45:16.649Z,98860.00
2023-05-02T11:47:45.758Z,98870.53
2023-05-02T11:50:12.876Z,98871.13
2023-05-02T11:52:41.316Z,98886.84
2023-05-02T11:55:12.839Z,98881.47
2023-05-02T11:57:40.603Z,98877.53
2023-05-02T12:00:08.345Z,98890.50
2023-05-02T12:02:47.924Z,98882.84
2023-05-02T12:05:15.715Z,98891.72
2023-05-02T12:07:44.807Z,98895.22
2023-05-02T12:10:13.212Z,98896.66
2023-05-02T12:12:41.324Z,98898.69
2023-05-02T12:15:12.788Z,98905.91
2023-05-02T12:17:52.965Z,98911.47
2023-05-02T12:20:20.412Z,98909.34
2023-05-02T12:22:47.971Z,98912.81
2023-05-02T12:25:15.239Z,98917.94
2023-05-02T12:27:42.353Z,98918.53
2023-05-02T12:30:12.592Z,98925.75
2023-05-02T12:32:45.189Z,98929.44
2023-05-02T12:35:21.627Z,98933.81
2023-05-02T12:37:48.885Z,98936.03
2023-05-02T12:40:17.394Z,98939.31
2023-05-02T12:43:00.902Z,98940.09
2023-05-02T12:45:30.735Z,98952.34
2023-05-02T12:47:58.122Z,98953.69
2023-05-02T12:50:36.865Z,98947.44
2023-05-02T12:53:04.439Z,98960.97
2023-05-02T12:55:34.716Z,98965.44
2023-05-02T12:58:02.428Z,98968.03
2023-05-02T13:00:32.264Z,98979.72
2023-05-02T13:02:59.747Z,98980.81
2023-05-02T13:05:27.167Z,98997.03
2023-05-02T13:07:56.331Z,98996.94
2023-05-02T13:10:24.953Z,99009.41
2023-05-02T13:12:52.734Z,99003.28
2023-05-02T13:15:20.518Z,99012.81
2023-05-02T13:17:48.431Z,99017.41
2023-05-02T13:20:15.938Z,99022.69
2023-05-02T13:22:43.401Z,99024.88
2023-05-02T13:25:10.621Z,99027.84
2023-05-02T13:27:37.964Z,99033.06
2023-05-02T13:30:08.874Z,99034.00
2023-05-02T13:32:37.532Z,99033.72
2023-05-02T13:35:05.730Z,99044.09
2023-05-02T13:37:32.844Z,99044.38
2023-05-02T13:40:00.238Z,99059.75
2023-05-02T13:42:27.792Z,99065.28
2023-05-02T13:44:55.640Z,99069.34
2023-05-02T13:47:23.216Z,99077.25
2023-05-02T13:49:50.681Z,99075.94
2023-05-02T13:52:18.061Z,99079.97
2023-05-02T13:54:45.043Z,99091.22
2023-05-02T13:57:12.450Z,99095.44
2023-05-02T13:59:39.827Z,99091.78
2023-05-02T14:02:07.837Z,99096.47
2023-05-02T14:04:35.211Z,99102.69
2023-05-02T14:07:02.262Z,99104.06
2023-05-02T14:09:29.802Z,99106.78
2023-05-02T14:11:58.421Z,99117.31
2023-05-02T14:14:25.746Z,99113.69
2023-05-02T14:16:52.827Z,99115.53
2023-05-02T14:19:20.449Z,99112.56
2023-05-02T14:21:47.900Z,99124.25
2023-05-02T14:24:16.451Z,99130.13
2023-05-02T14:26:43.807Z,99126.63
2023-05-02T14:29:11.161Z,99140.31
2023-05-02T14:31:38.533Z,99137.69
2023-05-02T14:34:08.176Z,99145.03
2023-05-02T14:36:36.192Z,99148.38
2023-05-02T14:39:03.536Z,99147.22
2023-05-02T14:41:30.565Z,99151.06
2023-05-02T14:43:58.020Z,99166.91
2023-05-02T14:46:25.468Z,99157.25
2023-05-02T14:48:52.613Z,99159.75
2023-05-02T14:51:20.410Z,99173.28
2023-05-02T14:53:49.249Z,99177.78
2023-05-02T14:56:18.806Z,99172.78
2023-05-02T14:58:46.402Z,99169.25
2023-05-02T15:01:21.794Z,99185.47
2023-05-02T15:04:05.039Z,99187.16
2023-05-02T15:06:34.926Z,99185.28
2023-05-02T15:09:02.452Z,99190.81
2023-05-02T15:11:30.305Z,99192.13
2023-05-02T15:13:59.470Z,99189.97
2023-05-02T15:16:27.248Z,99195.47
2023-05-02T15:18:55.833Z,99203.50
2023-05-02T15:21:23.156Z,99200.81
2023-05-02T15:23:50.456Z,99203.50
2023-05-02T15:26:18.111Z,99218.84
2023-05-02T15:28:45.512Z,99222.50
2023-05-02T15:31:12.928Z,99213.97
2023-05-02T15:33:40.610Z,99221.00
2023-05-02T15:36:08.308Z,99222.16
2023-05-02T15:38:39.288Z,99224.78
2023-05-02T15:41:09.346Z,99228.47
2023-05-02T15:43:37.343Z,99238.81
2023-05-02T15:46:05.033Z,99245.94
2023-05-02T15:48:35.565Z,99235.94
2023-05-02T15:51:03.205Z,99243.59
2023-05-02T15:53:30.328Z,99245.72
2023-05-02T15:55:57.674Z,99253.91
2023-05-02T15:58:25.168Z,99249.06
2023-05-02T16:00:52.733Z,99258.72
2023-05-02T16:03:19.903Z,99250.03
2023-05-02T16:05:47.558Z,99249.53
2023-05-02T16:08:14.916Z,99255.72
2023-05-02T16:10:43.468Z,99253.56
2023-05-02T16:13:10.791Z,99252.56
2023-05-02T16:15:38.897Z,99252.38
2023-05-02T16:18:06.264Z,99249.72
2023-05-02T16:20:36.320Z,99257.72
2023-05-02T16:23:04.617Z,99254.56
2023-05-02T16:25:32.409Z,99256.38
2023-05-02T16:28:00.105Z,99262.56
2023-05-02T16:30:27.930Z,99268.72
2023-05-02T16:32:55.185Z,99265.53
2023-05-02T16:35:22.702Z,99259.53
2023-05-02T16:37:50.055Z,99266.00
2023-05-02T16:40:18.003Z,99265.66
2023-05-02T16:42:45.403Z,99267.81
2023-05-02T16:45:12.819Z,99269.97
2023-05-02T16:47:39.999Z,99273.94
2023-05-02T16:50:08.194Z,99269.06
2023-05-02T16:52:37.335Z,99269.56
2023-05-02T16:55:04.877Z,99264.84
2023-05-02T16:57:32.161Z,99272.50
2023-05-02T17:00:00.314Z,99266.81
2023-05-02T17:02:28.300Z,99290.41
2023-05-02T17:04:55.566Z,99279.53
2023-05-02T17:07:23.100Z,99283.53
2023-05-02T17:09:50.730Z,99291.50
2023-05-02T17:12:22.160Z,99295.19
2023-05-02T17:14:49.519Z,99293.50
2023-05-02T17:17:18.529Z,99298.00
2023-05-02T17:19:45.950Z,99307.81
2023-05-02T17:22:13.309Z,99309.66
2023-05-02T17:24:41.973Z,99306.44
2023-05-02T17:27:11.044Z,99314.06
2023-05-02T17:29:38.358Z,99308.22
2023-05-02T17:32:05.959Z,99309.38
2023-05-02T17:34:35.670Z,99312.31
2023-05-02T17:37:03.057Z,99313.47
2023-05-02T17:39:30.178Z,99306.47
2023-05-02T17:41:57.260Z,99308.28
2023-05-02T17:44:24.627Z,99310.44
2023-05-02T17:46:51.655Z,99312.56
2023-05-02T17:49:18.753Z,99311.59
2023-05-02T17:51:46.231Z,99312.56
2023-05-02T17:54:13.426Z,99308.41
2023-05-02T17:56:40.418Z,99310.91
2023-05-02T17:59:07.838Z,99314.09
2023-05-02T18:01:35.412Z,99317.28
2023-05-02T18:04:03.813Z,99319.94
2023-05-02T18:06:34.201Z,99320.25
2023-05-02T18:09:01.885Z,99325.06
2023-05-02T18:11:38.351Z,99321.91
2023-05-02T18:14:05.938Z,99321.78
2023-05-02T18:16:34.103Z,99331.91
2023-05-02T18:19:01.741Z,99326.72
2023-05-02T18:21:30.665Z,99329.38
2023-05-02T18:23:57.707Z,99335.41
2023-05-02T18:26:24.827Z,99332.28
2023-05-02T18:28:52.914Z,99335.44
2023-05-02T18:31:20.797Z,99337.13
2023-05-02T18:33:48.022Z,99324.34
2023-05-02T18:36:20.204Z,99330.69
2023-05-02T18:38:47.514Z,99338.50
2023-05-02T18:41:14.556Z,99335.53
2023-05-02T18:43:42.207Z,99341.84
2023-05-02T18:46:11.817Z,99340.34
2023-05-02T18:48:39.507Z,99337.84
2023-05-02T18:51:06.601Z,99338.94
2023-05-02T18:53:33.980Z,99338.13
2023-05-02T18:56:01.073Z,99332.78
2023-05-02T18:58:28.561Z,99338.00
2023-05-02T19:00:55.762Z,99341.63
2023-05-02T19:03:23.517Z,99340.50
2023-05-02T19:05:51.381Z,99343.31
2023-05-02T19:08:18.524Z,99337.84
2023-05-02T19:10:46.272Z,99344.00
2023-05-02T19:13:14.251Z,99345.66
2023-05-02T19:15:41.721Z,99342.16
2023-05-02T19:18:09.046Z,99347.03
2023-05-02T19:20:36.294Z,99351.69
2023-05-02T19:23:18.926Z,99353.34
2023-05-02T19:25:47.038Z,99350.16
2023-05-02T19:28:16.379Z,99356.47
2023-05-02T19:30:45.131Z,99360.25
2023-05-02T19:33:12.445Z,99360.13
2023-05-02T19:35:39.860Z,99366.16
2023-05-02T19:38:07.184Z,99351.84
2023-05-02T19:40:34.172Z,99353.81
2023-05-02T19:43:01.546Z,99361.25
2023-05-02T19:45:28.900Z,99363.53
2023-05-02T19:47:56.396Z,99366.38
2023-05-02T19:50:25.524Z,99366.84
2023-05-02T19:52:52.726Z,99370.34
2023-05-02T19:55:20.467Z,99367.50
2023-05-02T19:57:48.337Z,99365.84
2023-05-02T20:00:15.858Z,99359.84
2023-05-02T20:02:44.335Z,99370.75
2023-05-02T20:05:11.800Z,99360.41
2023-05-02T20:07:38.867Z,99366.06
2023-05-02T20:10:06.598Z,99373.66
2023-05-02T20:12:34.086Z,99373.00
2023-05-02T20:15:01.552Z,99370.03
2023-05-02T20:17:28.953Z,99371.84
2023-05-02T20:19:57.179Z,99367.34
2023-05-02T20:22:24.089Z,99367.50
2023-05-02T20:24:51.252Z,99370.03
2023-05-02T20:27:18.252Z,99370.03
2023-05-02T20:29:45.992Z,99363.84
2023-05-02T20:32:13.650Z,99371.16
2023-05-02T20:34:41.045Z,99372.44
2023-05-02T20:37:10.207Z,99376.38
2023-05-02T20:39:37.429Z,99372.34
2023-05-02T20:42:05.392Z,99373.50
2023-05-02T20:44:36.163Z,99375.47
2023-05-02T20:47:06.364Z,99373.66
2023-05-02T20:49:34.427Z,99375.03
2023-05-02T20:52:05.346Z,99370.38
2023-05-02T20:54:33.098Z,99375.53
2023-05-02T20:57:00.463Z,99378.44
2023-05-02T20:59:27.355Z,99379.00
2023-05-02T21:01:54.749Z,99375.19
2023-05-02T21:04:21.934Z,99377.47
2023-05-02T21:06:49.640Z,99385.75
2023-05-02T21:09:16.794Z,99388.72
2023-05-02T21:11:44.359Z,99389.38
2023-05-02T21:14:11.718Z,99380.56
2023-05-02T21:16:39.102Z,99386.88
2023-05-02T21:19:06.490Z,99390.53
2023-05-02T21:21:33.644Z,99394.34
2023-05-02T21:24:01.510Z,99391.00
2023-05-02T21:26:28.583Z,99390.47
2023-05-02T21:28:56.051Z,99399.44
2023-05-02T21:31:23.049Z,99397.88
2023-05-02T21:33:50.234Z,99397.19
2023-05-02T21:36:17.256Z,99397.03
2023-05-02T21:38:44.478Z,99403.19
2023-05-02T21:41:11.628Z,99402.38
2023-05-02T21:43:39.583Z,99399.69
2023-05-02T21:46:07.213Z,99399.44
2023-05-02T21:48:34.530Z,99399.69
2023-05-02T21:51:07.268Z,99405.59
2023-05-02T21:53:34.627Z,99406.44
2023-05-02T21:56:02.001Z,99402.22
2023-05-02T21:58:29.517Z,99407.53
2023-05-02T22:00:56.850Z,99406.84
2023-05-02T22:03:25.395Z,99403.66
2023-05-02T22:05:54.250Z,99411.50
2023-05-02T22:08:21.755Z,99410.34
2023-05-02T22:10:48.737Z,99416.50
2023-05-02T22:13:16.371Z,99412.19
2023-05-02T22:15:46.945Z,99414.84
2023-05-02T22:18:17.537Z,99423.66
2023-05-02T22:20:44.920Z,99428.00
2023-05-02T22:23:12.003Z,99426.06
2023-05-02T22:25:43.510Z,99427.56
2023-05-02T22:28:13.811Z,99419.44
2023-05-02T22:30:44.830Z,99424.16
2023-05-02T22:33:12.872Z,99425.53
2023-05-02T22:35:40.528Z,99429.13
2023-05-02T22:38:10.560Z,99428.38
2023-05-02T22:40:38.139Z,99432.13
2023-05-02T22:43:05.483Z,99438.22
2023-05-02T22:45:33.535Z,99434.66
2023-05-02T22:48:01.307Z,99438.91
2023-05-02T22:50:31.067Z,99446.38
2023-05-02T22:52:59.462Z,99438.25
2023-05-02T22:55:26.850Z,99447.06
2023-05-02T22:57:54.824Z,99447.56
2023-05-02T23:00:23.560Z,99443.41
2023-05-02T23:02:50.737Z,99446.72
2023-05-02T23:05:17.972Z,99442.69
2023-05-02T23:07:45.365Z,99446.19
2023-05-02T23:10:12.478Z,99445.25
2023-05-02T23:12:39.432Z,99457.78
2023-05-02T23:15:07.519Z,99454.47
2023-05-02T23:17:39.486Z,99449.44
2023-05-02T23:20:10.907Z,99448.06
2023-05-02T23:22:43.926Z,99454.41
2023-05-02T23:25:11.768Z,99460.44
2023-05-02T23:27:38.736Z,99462.63
2023-05-02T23:30:07.565Z,99465.44
2023-05-02T23:32:35.186Z,99476.50
2023-05-02T23:35:03.491Z,99468.03
2023-05-02T23:37:30.848Z,99477.25
2023-05-02T23:39:59.821Z,99471.41
2023-05-02T23:42:28.132Z,99483.72
2023-05-02T23:44:57.375Z,99481.22
2023-05-02T23:47:27.666Z,99488.94
2023-05-02T23:49:55.023Z,99490.94
2023-05-02T23:52:22.398Z,99492.03
2023-05-02T23:54:49.555Z,99503.28
2023-05-02T23:57:17.139Z,99509.75
2023-05-02T23:59:44.192Z,99512.97
